createdAt,value
2016-10-30T00:00:20.495Z,1015.4
2016-10-30T00:01:20.512Z,1015.36
2016-10-30T00:02:20.529Z,1015.35
2016-10-30T00:03:20.546Z,1015.32
2016-10-30T00:04:20.558Z,1015.33
2016-10-30T00:05:20.573Z,1015.33
2016-10-30T00:06:20.593Z,1015.35
2016-10-30T00:07:20.606Z,1015.3
2016-10-30T00:08:20.621Z,1015.28
2016-10-30T00:09:20.634Z,1015.24
2016-10-30T00:10:20.656Z,1015.22
2016-10-30T00:11:20.664Z,1015.22
2016-10-30T00:12:20.686Z,1015.22
2016-10-30T00:13:20.701Z,1015.23
2016-10-30T00:14:20.716Z,1015.23
2016-10-30T00:15:20.730Z,1015.22
2016-10-30T00:16:20.750Z,1015.2
2016-10-30T00:17:20.759Z,1015.23
2016-10-30T00:18:20.777Z,1015.2
2016-10-30T00:19:20.794Z,1015.13
2016-10-30T00:20:20.804Z,1015.12
2016-10-30T00:21:20.827Z,1015.11
2016-10-30T00:22:20.838Z,1015.08
2016-10-30T00:23:20.857Z,1015.07
2016-10-30T00:24:20.872Z,1015.04
2016-10-30T00:25:20.887Z,1015.08
2016-10-30T00:26:20.905Z,1015.05
2016-10-30T00:27:20.921Z,1015.07
2016-10-30T00:28:20.938Z,1015.07
2016-10-30T00:29:20.947Z,1015.06
2016-10-30T00:30:20.968Z,1015.04
2016-10-30T00:31:20.980Z,1015.07
2016-10-30T00:32:20.997Z,1015.09
2016-10-30T00:33:21.011Z,1015.08
2016-10-30T00:34:21.027Z,1015.08
2016-10-30T00:35:21.041Z,1015.1
2016-10-30T00:36:21.057Z,1015.09
2016-10-30T00:37:21.076Z,1015.05
2016-10-30T00:38:21.091Z,1015.03
2016-10-30T00:39:21.108Z,1015.03
2016-10-30T00:40:21.122Z,1015.03
2016-10-30T00:41:21.137Z,1015.1
2016-10-30T00:42:21.154Z,1015.06
2016-10-30T00:43:21.167Z,1015.03
2016-10-30T00:44:21.179Z,1015.05
2016-10-30T00:45:21.201Z,1015.06
2016-10-30T00:46:21.211Z,1015.03
2016-10-30T00:47:21.231Z,1015.09
2016-10-30T00:48:21.249Z,1015.05
2016-10-30T00:49:21.259Z,1015.05
2016-10-30T00:50:21.277Z,1015.01
2016-10-30T00:51:21.294Z,1015.01
2016-10-30T00:52:21.307Z,1015.01
2016-10-30T00:53:21.319Z,1015.03
2016-10-30T00:54:21.340Z,1015
2016-10-30T00:55:21.351Z,1014.99
2016-10-30T00:56:21.368Z,1015.03
2016-10-30T00:57:21.384Z,1015.01
2016-10-30T00:58:21.401Z,1015.03
2016-10-30T00:59:21.412Z,1014.99
2016-10-30T01:00:21.428Z,1015
2016-10-30T01:01:21.445Z,1014.99
2016-10-30T01:02:21.462Z,1015.04
2016-10-30T01:03:21.478Z,1015.04
2016-10-30T01:04:21.489Z,1015.08
2016-10-30T01:05:21.506Z,1015.08
2016-10-30T01:06:21.525Z,1015.05
2016-10-30T01:07:21.540Z,1014.99
2016-10-30T01:08:21.549Z,1015.07
2016-10-30T01:09:21.567Z,1015
2016-10-30T01:10:21.579Z,1014.99
2016-10-30T01:11:21.596Z,1014.99
2016-10-30T01:12:21.618Z,1014.96
2016-10-30T01:13:21.633Z,1014.95
2016-10-30T01:14:21.645Z,1014.97
2016-10-30T01:15:21.660Z,1014.92
2016-10-30T01:16:21.678Z,1014.89
2016-10-30T01:17:21.692Z,1014.83
2016-10-30T01:18:21.709Z,1014.84
2016-10-30T01:19:21.725Z,1014.88
2016-10-30T01:20:21.732Z,1014.89
2016-10-30T01:21:21.752Z,1014.9
2016-10-30T01:22:21.768Z,1014.97
2016-10-30T01:23:21.785Z,1014.99
2016-10-30T01:24:21.798Z,1015.03
2016-10-30T01:25:21.813Z,1015.08
2016-10-30T01:26:21.831Z,1015.03
2016-10-30T01:27:21.842Z,1015.09
2016-10-30T01:28:21.860Z,1015.11
2016-10-30T01:29:21.880Z,1015.13
2016-10-30T01:30:21.886Z,1015.09
2016-10-30T01:31:21.905Z,1015.09
2016-10-30T01:32:21.919Z,1015.14
2016-10-30T01:33:21.936Z,1015.08
2016-10-30T01:34:21.954Z,1015.04
2016-10-30T01:35:21.965Z,1015.03
2016-10-30T01:36:21.986Z,1015.02
2016-10-30T01:37:21.997Z,1015.05
2016-10-30T01:38:22.013Z,1015.1
2016-10-30T01:39:22.030Z,1015.09
2016-10-30T01:40:22.046Z,1015.06
2016-10-30T01:41:22.059Z,1015.08
2016-10-30T01:42:22.075Z,1015.05
2016-10-30T01:43:22.092Z,1015.07
2016-10-30T01:44:22.102Z,1015.04
2016-10-30T01:45:22.120Z,1015.05
2016-10-30T01:46:22.132Z,1015.05
2016-10-30T01:47:22.151Z,1015.03
2016-10-30T01:48:22.161Z,1015.02
2016-10-30T01:49:22.182Z,1015.02
2016-10-30T01:50:22.197Z,1015.03
2016-10-30T01:51:22.213Z,1014.97
2016-10-30T01:52:22.227Z,1015.02
2016-10-30T01:53:22.243Z,1015.02
2016-10-30T01:54:22.255Z,1015.03
2016-10-30T01:55:22.271Z,1015.01
2016-10-30T01:56:22.288Z,1015
2016-10-30T01:57:22.298Z,1014.97
2016-10-30T01:58:22.315Z,1015.02
2016-10-30T01:59:22.330Z,1015.01
2016-10-30T02:00:22.346Z,1015.02
2016-10-30T02:01:22.364Z,1015.03
2016-10-30T02:02:22.378Z,1015.02
2016-10-30T02:03:22.395Z,1015
2016-10-30T02:04:22.407Z,1015.02
2016-10-30T02:05:22.423Z,1014.99
2016-10-30T02:06:22.432Z,1015
2016-10-30T02:07:22.448Z,1015
2016-10-30T02:08:22.468Z,1014.98
2016-10-30T02:09:22.483Z,1014.97
2016-10-30T02:10:22.495Z,1014.98
2016-10-30T02:11:22.510Z,1014.98
2016-10-30T02:12:22.525Z,1014.98
2016-10-30T02:13:22.545Z,1014.95
2016-10-30T02:14:22.557Z,1014.9
2016-10-30T02:15:22.573Z,1014.95
2016-10-30T02:16:22.588Z,1014.96
2016-10-30T02:17:22.604Z,1014.91
2016-10-30T02:18:22.618Z,1014.95
2016-10-30T02:19:22.631Z,1014.97
2016-10-30T02:20:22.651Z,1014.97
2016-10-30T02:21:22.660Z,1014.99
2016-10-30T02:22:22.709Z,1014.94
2016-10-30T02:23:22.689Z,1014.96
2016-10-30T02:24:22.705Z,1014.97
2016-10-30T02:25:22.720Z,1015.01
2016-10-30T02:26:22.735Z,1014.97
2016-10-30T02:27:22.755Z,1014.94
2016-10-30T02:28:22.765Z,1014.92
2016-10-30T02:29:22.782Z,1014.85
2016-10-30T02:30:22.801Z,1014.78
2016-10-30T02:31:22.817Z,1014.75
2016-10-30T02:32:22.827Z,1014.75
2016-10-30T02:33:22.843Z,1014.75
2016-10-30T02:34:22.856Z,1014.68
2016-10-30T02:35:22.875Z,1014.66
2016-10-30T02:36:22.886Z,1014.61
2016-10-30T02:37:22.907Z,1014.6
2016-10-30T02:38:22.918Z,1014.61
2016-10-30T02:39:22.938Z,1014.57
2016-10-30T02:40:22.946Z,1014.54
2016-10-30T02:41:22.971Z,1014.46
2016-10-30T02:42:22.975Z,1014.47
2016-10-30T02:43:22.996Z,1014.49
2016-10-30T02:44:23.010Z,1014.49
2016-10-30T02:45:23.028Z,1014.55
2016-10-30T02:46:23.039Z,1014.52
2016-10-30T02:47:23.052Z,1014.51
2016-10-30T02:48:23.067Z,1014.5
2016-10-30T02:49:23.085Z,1014.51
2016-10-30T02:50:23.098Z,1014.5
2016-10-30T02:51:23.117Z,1014.61
2016-10-30T02:52:23.134Z,1014.58
2016-10-30T02:53:23.145Z,1014.54
2016-10-30T02:54:23.163Z,1014.57
2016-10-30T02:55:23.179Z,1014.53
2016-10-30T02:56:23.195Z,1014.49
2016-10-30T02:57:23.211Z,1014.46
2016-10-30T02:58:23.224Z,1014.47
2016-10-30T02:59:23.238Z,1014.48
2016-10-30T03:00:23.258Z,1014.43
2016-10-30T03:01:23.269Z,1014.44
2016-10-30T03:02:23.288Z,1014.49
2016-10-30T03:03:23.299Z,1014.5
2016-10-30T03:04:23.314Z,1014.52
2016-10-30T03:05:23.328Z,1014.54
2016-10-30T03:06:23.347Z,1014.51
2016-10-30T03:07:23.365Z,1014.5
2016-10-30T03:08:23.373Z,1014.45
2016-10-30T03:09:23.388Z,1014.37
2016-10-30T03:10:23.407Z,1014.42
2016-10-30T03:11:23.422Z,1014.37
2016-10-30T03:12:23.441Z,1014.41
2016-10-30T03:13:23.454Z,1014.41
2016-10-30T03:14:23.469Z,1014.33
2016-10-30T03:15:23.487Z,1014.36
2016-10-30T03:16:23.493Z,1014.36
2016-10-30T03:17:23.512Z,1014.37
2016-10-30T03:18:23.533Z,1014.38
2016-10-30T03:19:23.548Z,1014.39
2016-10-30T03:20:23.557Z,1014.43
2016-10-30T03:21:23.576Z,1014.4
2016-10-30T03:22:23.591Z,1014.44
2016-10-30T03:23:23.609Z,1014.52
2016-10-30T03:24:23.618Z,1014.52
2016-10-30T03:25:23.638Z,1014.55
2016-10-30T03:26:23.655Z,1014.55
2016-10-30T03:27:23.670Z,1014.59
2016-10-30T03:28:23.686Z,1014.59
2016-10-30T03:29:23.699Z,1014.58
2016-10-30T03:30:23.710Z,1014.55
2016-10-30T03:31:23.730Z,1014.52
2016-10-30T03:32:23.747Z,1014.5
2016-10-30T03:33:23.754Z,1014.46
2016-10-30T03:34:23.774Z,1014.43
2016-10-30T03:35:23.791Z,1014.41
2016-10-30T03:36:23.803Z,1014.46
2016-10-30T03:37:23.824Z,1014.49
2016-10-30T03:38:23.838Z,1014.48
2016-10-30T03:39:23.853Z,1014.46
2016-10-30T03:40:23.864Z,1014.47
2016-10-30T03:41:23.882Z,1014.42
2016-10-30T03:42:23.891Z,1014.42
2016-10-30T03:43:23.908Z,1014.4
2016-10-30T03:44:23.929Z,1014.43
2016-10-30T03:45:23.942Z,1014.45
2016-10-30T03:46:23.961Z,1014.38
2016-10-30T03:47:23.970Z,1014.41
2016-10-30T03:48:23.985Z,1014.39
2016-10-30T03:49:23.998Z,1014.37
2016-10-30T03:50:24.021Z,1014.4
2016-10-30T03:51:24.034Z,1014.38
2016-10-30T03:52:24.046Z,1014.38
2016-10-30T03:53:24.060Z,1014.35
2016-10-30T03:54:24.081Z,1014.36
2016-10-30T03:55:24.088Z,1014.35
2016-10-30T03:56:24.112Z,1014.34
2016-10-30T03:57:24.123Z,1014.37
2016-10-30T03:58:24.137Z,1014.34
2016-10-30T03:59:24.156Z,1014.37
2016-10-30T04:02:24.200Z,1014.36
2016-10-30T04:03:24.217Z,1014.34
2016-10-30T04:04:24.234Z,1014.36
2016-10-30T04:05:24.252Z,1014.37
2016-10-30T04:06:24.265Z,1014.36
2016-10-30T04:07:24.272Z,1014.35
2016-10-30T04:08:24.292Z,1014.37
2016-10-30T04:09:24.362Z,1014.35
2016-10-30T04:10:24.326Z,1014.34
2016-10-30T04:11:24.337Z,1014.32
2016-10-30T04:12:24.352Z,1014.29
2016-10-30T04:13:24.366Z,1014.28
2016-10-30T04:14:24.379Z,1014.31
2016-10-30T04:15:24.401Z,1014.33
2016-10-30T04:16:24.416Z,1014.38
2016-10-30T04:17:24.427Z,1014.36
2016-10-30T04:18:24.438Z,1014.35
2016-10-30T04:19:24.460Z,1014.35
2016-10-30T04:20:24.470Z,1014.31
2016-10-30T04:21:24.491Z,1014.36
2016-10-30T04:22:24.500Z,1014.36
2016-10-30T04:23:24.521Z,1014.3
2016-10-30T04:24:24.534Z,1014.26
2016-10-30T04:25:24.550Z,1014.29
2016-10-30T04:26:24.563Z,1014.25
2016-10-30T04:27:24.581Z,1014.27
2016-10-30T04:28:24.592Z,1014.28
2016-10-30T04:29:24.604Z,1014.25
2016-10-30T04:30:24.618Z,1014.31
2016-10-30T04:31:24.641Z,1014.33
2016-10-30T04:32:24.652Z,1014.3
2016-10-30T04:33:24.666Z,1014.37
2016-10-30T04:34:24.684Z,1014.37
2016-10-30T04:35:24.696Z,1014.44
2016-10-30T04:36:24.713Z,1014.4
2016-10-30T04:37:24.724Z,1014.38
2016-10-30T04:38:24.743Z,1014.35
2016-10-30T04:39:24.754Z,1014.38
2016-10-30T04:40:24.771Z,1014.38
2016-10-30T04:41:24.787Z,1014.42
2016-10-30T04:42:24.798Z,1014.46
2016-10-30T04:43:24.816Z,1014.45
2016-10-30T04:44:24.832Z,1014.48
2016-10-30T04:45:24.846Z,1014.45
2016-10-30T04:46:24.863Z,1014.44
2016-10-30T04:47:24.875Z,1014.44
2016-10-30T04:48:24.893Z,1014.43
2016-10-30T04:49:24.906Z,1014.48
2016-10-30T04:50:24.919Z,1014.44
2016-10-30T04:51:24.931Z,1014.47
2016-10-30T04:52:24.953Z,1014.43
2016-10-30T04:53:24.970Z,1014.43
2016-10-30T04:54:24.982Z,1014.43
2016-10-30T04:55:24.995Z,1014.42
2016-10-30T04:56:25.008Z,1014.44
2016-10-30T04:57:25.021Z,1014.44
2016-10-30T04:58:25.037Z,1014.44
2016-10-30T04:59:25.055Z,1014.44
2016-10-30T05:00:25.070Z,1014.48
2016-10-30T05:01:25.083Z,1014.44
2016-10-30T05:02:25.102Z,1014.43
2016-10-30T05:03:25.112Z,1014.43
2016-10-30T05:04:25.128Z,1014.42
2016-10-30T05:05:25.144Z,1014.4
2016-10-30T05:06:25.162Z,1014.43
2016-10-30T05:07:25.175Z,1014.47
2016-10-30T05:08:25.191Z,1014.46
2016-10-30T05:09:25.199Z,1014.46
2016-10-30T05:10:25.219Z,1014.46
2016-10-30T05:11:25.235Z,1014.39
2016-10-30T05:12:25.246Z,1014.42
2016-10-30T05:13:25.262Z,1014.43
2016-10-30T05:14:25.281Z,1014.47
2016-10-30T05:15:25.297Z,1014.47
2016-10-30T05:16:25.311Z,1014.5
2016-10-30T05:17:25.325Z,1014.45
2016-10-30T05:18:25.340Z,1014.45
2016-10-30T05:19:25.356Z,1014.41
2016-10-30T05:20:25.371Z,1014.37
2016-10-30T05:21:25.387Z,1014.37
2016-10-30T05:22:25.398Z,1014.27
2016-10-30T05:23:25.417Z,1014.28
2016-10-30T05:24:25.430Z,1014.25
2016-10-30T05:25:25.447Z,1014.21
2016-10-30T05:26:25.463Z,1014.2
2016-10-30T05:27:25.478Z,1014.19
2016-10-30T05:28:25.491Z,1014.18
2016-10-30T05:29:25.503Z,1014.18
2016-10-30T05:30:25.523Z,1014.22
2016-10-30T05:31:25.538Z,1014.21
2016-10-30T05:32:25.549Z,1014.21
2016-10-30T05:33:25.565Z,1014.21
2016-10-30T05:34:25.583Z,1014.13
2016-10-30T05:35:25.594Z,1014.12
2016-10-30T05:36:25.613Z,1014.1
2016-10-30T05:37:25.627Z,1014.07
2016-10-30T05:38:25.645Z,1014.14
2016-10-30T05:39:25.655Z,1014.05
2016-10-30T05:40:25.670Z,1014.09
2016-10-30T05:41:25.690Z,1014.09
2016-10-30T05:42:25.704Z,1014.1
2016-10-30T05:43:25.721Z,1014.02
2016-10-30T05:44:25.730Z,1014.03
2016-10-30T05:45:25.745Z,1013.99
2016-10-30T05:46:25.764Z,1013.98
2016-10-30T05:47:25.779Z,1014.04
2016-10-30T05:48:25.793Z,1014.03
2016-10-30T05:49:25.805Z,1014.02
2016-10-30T05:50:25.821Z,1014.04
2016-10-30T05:51:25.835Z,1014.03
2016-10-30T05:52:25.852Z,1014.05
2016-10-30T05:53:25.868Z,1013.99
2016-10-30T05:54:25.887Z,1013.99
2016-10-30T05:55:25.904Z,1013.96
2016-10-30T05:56:25.916Z,1013.96
2016-10-30T05:57:25.930Z,1013.9
2016-10-30T05:58:25.945Z,1013.85
2016-10-30T05:59:25.963Z,1013.86
2016-10-30T06:00:25.974Z,1013.92
2016-10-30T06:01:25.993Z,1013.92
2016-10-30T06:02:26.006Z,1013.93
2016-10-30T06:03:26.022Z,1013.93
2016-10-30T06:04:26.038Z,1013.95
2016-10-30T06:05:26.049Z,1013.93
2016-10-30T06:06:26.067Z,1013.99
2016-10-30T06:07:26.084Z,1014.03
2016-10-30T06:08:26.101Z,1014.07
2016-10-30T06:09:26.113Z,1014.19
2016-10-30T06:10:26.125Z,1014.22
2016-10-30T06:11:26.147Z,1014.31
2016-10-30T06:12:26.161Z,1014.35
2016-10-30T06:13:26.177Z,1014.32
2016-10-30T06:14:26.189Z,1014.3
2016-10-30T06:15:26.205Z,1014.26
2016-10-30T06:16:26.224Z,1014.23
2016-10-30T06:17:26.237Z,1014.29
2016-10-30T06:18:26.251Z,1014.35
2016-10-30T06:19:26.269Z,1014.34
2016-10-30T06:20:26.279Z,1014.26
2016-10-30T06:21:26.295Z,1014.23
2016-10-30T06:22:26.314Z,1014.28
2016-10-30T06:23:26.325Z,1014.39
2016-10-30T06:24:26.342Z,1014.32
2016-10-30T06:25:26.356Z,1014.24
2016-10-30T06:26:26.376Z,1014.24
2016-10-30T06:27:26.391Z,1014.31
2016-10-30T06:28:26.401Z,1014.4
2016-10-30T06:29:26.421Z,1014.38
2016-10-30T06:30:26.434Z,1014.4
2016-10-30T06:31:26.449Z,1014.35
2016-10-30T06:32:26.462Z,1014.36
2016-10-30T06:33:26.479Z,1014.4
2016-10-30T06:34:26.495Z,1014.42
2016-10-30T06:35:26.508Z,1014.36
2016-10-30T06:36:26.526Z,1014.35
2016-10-30T06:37:26.541Z,1014.31
2016-10-30T06:38:26.555Z,1014.34
2016-10-30T06:39:26.568Z,1014.35
2016-10-30T06:40:26.588Z,1014.39
2016-10-30T06:41:26.603Z,1014.37
2016-10-30T06:42:26.618Z,1014.36
2016-10-30T06:43:26.628Z,1014.39
2016-10-30T06:44:26.647Z,1014.41
2016-10-30T06:45:26.660Z,1014.44
2016-10-30T06:46:26.675Z,1014.49
2016-10-30T06:47:26.691Z,1014.43
2016-10-30T06:48:26.710Z,1014.5
2016-10-30T06:49:26.719Z,1014.53
2016-10-30T06:50:26.741Z,1014.57
2016-10-30T06:51:26.757Z,1014.61
2016-10-30T06:52:26.771Z,1014.57
2016-10-30T06:53:26.788Z,1014.59
2016-10-30T06:54:26.801Z,1014.65
2016-10-30T06:55:26.817Z,1014.62
2016-10-30T06:56:26.829Z,1014.68
2016-10-30T06:57:26.843Z,1014.69
2016-10-30T06:58:26.859Z,1014.7
2016-10-30T06:59:26.876Z,1014.72
2016-10-30T07:00:26.892Z,1014.68
2016-10-30T07:01:26.912Z,1014.71
2016-10-30T07:02:26.919Z,1014.76
2016-10-30T07:03:26.934Z,1014.74
2016-10-30T07:04:26.957Z,1014.72
2016-10-30T07:05:26.967Z,1014.71
2016-10-30T07:06:26.988Z,1014.76
2016-10-30T07:07:26.998Z,1014.72
2016-10-30T07:08:27.013Z,1014.71
2016-10-30T07:09:27.029Z,1014.72
2016-10-30T07:10:27.047Z,1014.67
2016-10-30T07:11:27.062Z,1014.63
2016-10-30T07:12:27.079Z,1014.64
2016-10-30T07:13:27.094Z,1014.66
2016-10-30T07:14:27.112Z,1014.65
2016-10-30T07:15:27.127Z,1014.7
2016-10-30T07:16:27.137Z,1014.72
2016-10-30T07:17:27.160Z,1014.77
2016-10-30T07:18:27.169Z,1014.79
2016-10-30T07:19:27.183Z,1014.8
2016-10-30T07:20:27.205Z,1014.83
2016-10-30T07:21:27.221Z,1014.83
2016-10-30T07:22:27.232Z,1014.8
2016-10-30T07:23:27.248Z,1014.82
2016-10-30T07:24:27.268Z,1014.82
2016-10-30T07:25:27.277Z,1014.85
2016-10-30T07:26:27.299Z,1014.84
2016-10-30T07:27:27.313Z,1014.86
2016-10-30T07:28:27.333Z,1014.87
2016-10-30T07:29:27.340Z,1014.9
2016-10-30T07:30:27.363Z,1014.93
2016-10-30T07:31:27.380Z,1014.94
2016-10-30T07:32:27.389Z,1014.95
2016-10-30T07:33:27.409Z,1015
2016-10-30T07:34:27.421Z,1014.98
2016-10-30T07:35:27.434Z,1014.99
2016-10-30T07:36:27.452Z,1015.03
2016-10-30T07:37:27.473Z,1015.01
2016-10-30T07:38:27.485Z,1015.08
2016-10-30T07:39:27.506Z,1015.04
2016-10-30T07:40:27.515Z,1015.06
2016-10-30T07:41:27.532Z,1015.09
2016-10-30T07:42:27.553Z,1015.06
2016-10-30T07:43:27.571Z,1015.09
2016-10-30T07:44:27.581Z,1015.09
2016-10-30T07:45:27.597Z,1015.12
2016-10-30T07:46:27.616Z,1015.13
2016-10-30T07:47:27.634Z,1015.14
2016-10-30T07:48:27.650Z,1015.14
2016-10-30T07:49:27.661Z,1015.16
2016-10-30T07:50:27.681Z,1015.23
2016-10-30T07:51:27.693Z,1015.24
2016-10-30T07:52:27.711Z,1015.2
2016-10-30T07:53:27.724Z,1015.18
2016-10-30T07:54:27.744Z,1015.19
2016-10-30T07:55:27.755Z,1015.15
2016-10-30T07:56:27.778Z,1015.2
2016-10-30T07:57:27.786Z,1015.18
2016-10-30T07:58:27.807Z,1015.19
2016-10-30T07:59:27.820Z,1015.15
2016-10-30T08:00:27.838Z,1015.12
2016-10-30T08:01:27.852Z,1015.05
2016-10-30T08:02:27.870Z,1015.09
2016-10-30T08:03:27.890Z,1015.11
2016-10-30T08:04:27.897Z,1015.13
2016-10-30T08:05:27.918Z,1015.09
2016-10-30T08:06:27.931Z,1015.13
2016-10-30T08:07:27.952Z,1015.18
2016-10-30T08:08:27.971Z,1015.2
2016-10-30T08:09:27.983Z,1015.23
2016-10-30T08:10:27.999Z,1015.23
2016-10-30T08:11:28.014Z,1015.2
2016-10-30T08:12:28.034Z,1015.17
2016-10-30T08:13:28.050Z,1015.16
2016-10-30T08:14:28.066Z,1015.15
2016-10-30T08:15:28.078Z,1015.14
2016-10-30T08:16:28.097Z,1015.15
2016-10-30T08:17:28.109Z,1015.1
2016-10-30T08:18:28.131Z,1015.16
2016-10-30T08:19:28.144Z,1015.12
2016-10-30T08:20:28.162Z,1015.14
2016-10-30T08:21:28.179Z,1015.13
2016-10-30T08:22:28.196Z,1015.15
2016-10-30T08:23:28.212Z,1015.08
2016-10-30T08:24:28.236Z,1015.12
2016-10-30T08:25:28.242Z,1015.15
2016-10-30T08:26:28.257Z,1015.21
2016-10-30T08:27:28.280Z,1015.21
2016-10-30T08:28:28.293Z,1015.19
2016-10-30T08:29:28.308Z,1015.17
2016-10-30T08:30:28.324Z,1015.22
2016-10-30T08:31:28.344Z,1015.26
2016-10-30T08:32:28.360Z,1015.24
2016-10-30T08:33:28.375Z,1015.27
2016-10-30T08:34:28.393Z,1015.31
2016-10-30T08:35:28.411Z,1015.31
2016-10-30T08:36:28.427Z,1015.36
2016-10-30T08:37:28.441Z,1015.32
2016-10-30T08:38:28.455Z,1015.35
2016-10-30T08:39:28.471Z,1015.29
2016-10-30T08:40:28.492Z,1015.32
2016-10-30T08:41:28.507Z,1015.29
2016-10-30T08:42:28.520Z,1015.29
2016-10-30T08:43:28.538Z,1015.28
2016-10-30T08:44:28.559Z,1015.27
2016-10-30T08:45:28.575Z,1015.31
2016-10-30T08:46:28.588Z,1015.35
2016-10-30T08:47:28.608Z,1015.33
2016-10-30T08:48:28.622Z,1015.32
2016-10-30T08:49:28.642Z,1015.34
2016-10-30T08:50:28.654Z,1015.35
2016-10-30T08:51:28.674Z,1015.31
2016-10-30T08:52:28.689Z,1015.4
2016-10-30T08:53:28.702Z,1015.34
2016-10-30T08:54:28.720Z,1015.33
2016-10-30T08:55:28.742Z,1015.36
2016-10-30T08:56:28.760Z,1015.4
2016-10-30T08:57:28.771Z,1015.39
2016-10-30T08:58:28.787Z,1015.38
2016-10-30T08:59:28.808Z,1015.34
2016-10-30T09:00:28.821Z,1015.38
2016-10-30T09:01:28.839Z,1015.37
2016-10-30T09:02:28.858Z,1015.38
2016-10-30T09:03:28.871Z,1015.44
2016-10-30T09:04:28.892Z,1015.42
2016-10-30T09:05:28.910Z,1015.41
2016-10-30T09:06:28.922Z,1015.36
2016-10-30T09:07:28.944Z,1015.37
2016-10-30T09:08:28.961Z,1015.34
2016-10-30T09:09:28.974Z,1015.32
2016-10-30T09:10:28.987Z,1015.31
2016-10-30T09:11:29.006Z,1015.27
2016-10-30T09:12:29.025Z,1015.31
2016-10-30T09:13:29.036Z,1015.36
2016-10-30T09:14:29.058Z,1015.39
2016-10-30T09:15:29.075Z,1015.35
2016-10-30T09:16:29.089Z,1015.32
2016-10-30T09:17:29.111Z,1015.33
2016-10-30T09:18:29.127Z,1015.37
2016-10-30T09:19:29.142Z,1015.41
2016-10-30T09:20:29.158Z,1015.41
2016-10-30T09:21:29.176Z,1015.44
2016-10-30T09:22:29.193Z,1015.45
2016-10-30T09:23:29.214Z,1015.41
2016-10-30T09:24:29.226Z,1015.39
2016-10-30T09:25:29.249Z,1015.42
2016-10-30T09:26:29.264Z,1015.42
2016-10-30T09:27:29.282Z,1015.41
2016-10-30T09:28:29.298Z,1015.4
2016-10-30T09:29:29.330Z,1015.42
2016-10-30T09:30:29.329Z,1015.43
2016-10-30T09:31:29.346Z,1015.4
2016-10-30T09:32:29.367Z,1015.41
2016-10-30T09:33:29.378Z,1015.4
2016-10-30T09:34:29.402Z,1015.38
2016-10-30T09:35:29.419Z,1015.37
2016-10-30T09:36:29.430Z,1015.33
2016-10-30T09:37:29.452Z,1015.37
2016-10-30T09:38:29.472Z,1015.28
2016-10-30T09:39:29.482Z,1015.32
2016-10-30T09:40:29.502Z,1015.36
2016-10-30T09:41:29.519Z,1015.4
2016-10-30T09:42:29.540Z,1015.44
2016-10-30T09:43:29.558Z,1015.42
2016-10-30T09:44:29.569Z,1015.45
2016-10-30T09:45:29.590Z,1015.47
2016-10-30T09:46:29.608Z,1015.51
2016-10-30T09:47:29.627Z,1015.47
2016-10-30T09:48:29.638Z,1015.49
2016-10-30T09:49:29.659Z,1015.52
2016-10-30T09:50:29.675Z,1015.49
2016-10-30T09:51:29.688Z,1015.49
2016-10-30T09:52:29.711Z,1015.49
2016-10-30T09:53:29.726Z,1015.5
2016-10-30T09:54:29.738Z,1015.47
2016-10-30T09:55:29.758Z,1015.46
2016-10-30T09:56:29.776Z,1015.45
2016-10-30T09:57:29.799Z,1015.44
2016-10-30T09:58:29.811Z,1015.43
2016-10-30T09:59:29.832Z,1015.41
2016-10-30T10:00:29.849Z,1015.41
2016-10-30T10:01:29.860Z,1015.35
2016-10-30T10:02:29.877Z,1015.31
2016-10-30T10:03:29.895Z,1015.3
2016-10-30T10:04:29.915Z,1015.3
2016-10-30T10:05:29.935Z,1015.3
2016-10-30T10:06:29.951Z,1015.3
2016-10-30T10:07:29.965Z,1015.3
2016-10-30T10:08:29.982Z,1015.27
2016-10-30T10:09:29.996Z,1015.33
2016-10-30T10:10:30.013Z,1015.3
2016-10-30T10:11:30.036Z,1015.3
2016-10-30T10:12:30.051Z,1015.27
2016-10-30T10:13:30.073Z,1015.29
2016-10-30T10:14:30.084Z,1015.28
2016-10-30T10:15:30.102Z,1015.24
2016-10-30T10:16:30.123Z,1015.21
2016-10-30T10:17:30.136Z,1015.21
2016-10-30T10:18:30.156Z,1015.25
2016-10-30T10:19:30.179Z,1015.24
2016-10-30T10:20:30.192Z,1015.3
2016-10-30T10:21:30.213Z,1015.32
2016-10-30T10:22:30.225Z,1015.32
2016-10-30T10:23:30.243Z,1015.24
2016-10-30T10:24:30.263Z,1015.28
2016-10-30T10:25:30.281Z,1015.3
2016-10-30T10:26:30.300Z,1015.3
2016-10-30T10:27:30.318Z,1015.27
2016-10-30T10:28:30.329Z,1015.27
2016-10-30T10:29:30.349Z,1015.22
2016-10-30T10:30:30.370Z,1015.2
2016-10-30T10:31:30.381Z,1015.17
2016-10-30T10:32:30.407Z,1015.26
2016-10-30T10:33:30.423Z,1015.21
2016-10-30T10:34:30.439Z,1015.29
2016-10-30T10:35:30.451Z,1015.26
2016-10-30T10:36:30.477Z,1015.27
2016-10-30T10:37:30.490Z,1015.2
2016-10-30T10:38:30.512Z,1015.12
2016-10-30T10:39:30.525Z,1015.07
2016-10-30T10:40:30.540Z,1014.98
2016-10-30T10:41:30.566Z,1014.96
2016-10-30T10:42:30.582Z,1015.01
2016-10-30T10:43:30.596Z,1015.06
2016-10-30T10:44:30.619Z,1015.07
2016-10-30T10:45:30.631Z,1015.07
2016-10-30T10:46:30.652Z,1015.08
2016-10-30T10:47:30.672Z,1015.03
2016-10-30T10:48:30.684Z,1015
2016-10-30T10:49:30.705Z,1015
2016-10-30T10:50:30.717Z,1015
2016-10-30T10:51:30.743Z,1015.05
2016-10-30T10:52:30.760Z,1015.02
2016-10-30T10:53:30.775Z,1014.98
2016-10-30T10:54:30.794Z,1015.04
2016-10-30T10:55:30.815Z,1015.08
2016-10-30T10:56:30.832Z,1015.04
2016-10-30T10:57:30.845Z,1015.05
2016-10-30T10:58:30.866Z,1015.07
2016-10-30T10:59:30.886Z,1014.97
2016-10-30T11:00:30.904Z,1014.93
2016-10-30T11:01:30.919Z,1014.94
2016-10-30T11:02:30.941Z,1014.93
2016-10-30T11:03:30.960Z,1014.81
2016-10-30T11:04:30.974Z,1014.73
2016-10-30T11:05:30.990Z,1014.67
2016-10-30T11:06:31.013Z,1014.64
2016-10-30T11:07:31.026Z,1014.61
2016-10-30T11:08:31.049Z,1014.69
2016-10-30T11:09:31.067Z,1014.78
2016-10-30T11:10:31.086Z,1014.74
2016-10-30T11:11:31.100Z,1014.7
2016-10-30T11:12:31.117Z,1014.7
2016-10-30T11:13:31.139Z,1014.74
2016-10-30T11:14:31.152Z,1014.75
2016-10-30T11:15:31.172Z,1014.76
2016-10-30T11:16:31.189Z,1014.77
2016-10-30T11:17:31.207Z,1014.75
2016-10-30T11:18:31.227Z,1014.7
2016-10-30T11:19:31.244Z,1014.74
2016-10-30T11:20:31.259Z,1014.78
2016-10-30T11:21:31.281Z,1014.73
2016-10-30T11:22:31.298Z,1014.77
2016-10-30T11:23:31.314Z,1014.74
2016-10-30T11:24:31.337Z,1014.72
2016-10-30T11:25:31.354Z,1014.7
2016-10-30T11:26:31.365Z,1014.66
2016-10-30T11:27:31.393Z,1014.63
2016-10-30T11:28:31.403Z,1014.65
2016-10-30T11:29:31.422Z,1014.71
2016-10-30T11:30:31.443Z,1014.7
2016-10-30T11:31:31.457Z,1014.67
2016-10-30T11:32:31.475Z,1014.69
2016-10-30T11:33:31.500Z,1014.77
2016-10-30T11:34:31.515Z,1014.78
2016-10-30T11:35:31.537Z,1014.78
2016-10-30T11:36:31.555Z,1014.71
2016-10-30T11:37:31.566Z,1014.66
2016-10-30T11:38:31.589Z,1014.59
2016-10-30T11:39:31.602Z,1014.63
2016-10-30T11:40:31.623Z,1014.62
2016-10-30T11:41:31.641Z,1014.64
2016-10-30T11:42:31.657Z,1014.61
2016-10-30T11:43:31.681Z,1014.62
2016-10-30T11:44:31.699Z,1014.6
2016-10-30T11:45:31.717Z,1014.6
2016-10-30T11:46:31.735Z,1014.57
2016-10-30T11:47:31.749Z,1014.58
2016-10-30T11:48:31.980Z,1014.57
2016-10-30T11:49:31.789Z,1014.57
2016-10-30T11:50:31.806Z,1014.52
2016-10-30T11:51:31.824Z,1014.56
2016-10-30T11:52:31.844Z,1014.53
2016-10-30T11:53:31.860Z,1014.54
2016-10-30T11:54:31.877Z,1014.55
2016-10-30T11:55:31.893Z,1014.55
2016-10-30T11:56:31.913Z,1014.56
2016-10-30T11:57:31.928Z,1014.56
2016-10-30T11:58:31.943Z,1014.52
2016-10-30T11:59:31.967Z,1014.52
2016-10-30T12:00:31.986Z,1014.56
2016-10-30T12:01:31.999Z,1014.46
2016-10-30T12:02:32.018Z,1014.45
2016-10-30T12:03:32.040Z,1014.43
2016-10-30T12:04:32.057Z,1014.43
2016-10-30T12:05:32.077Z,1014.36
2016-10-30T12:06:32.090Z,1014.37
2016-10-30T12:07:32.113Z,1014.42
2016-10-30T12:08:32.130Z,1014.36
2016-10-30T12:09:32.142Z,1014.36
2016-10-30T12:10:32.167Z,1014.32